Estación de Quillota

Ultimos registro cada 15 minutos 77
Estación Fecha / Hora Temperatura Humedad Lluvia Velocidad Dirección Radiación Presion
77 Quillota 03-05-2026 19:00 14,8 53 0 0 190 0 1016,1
76 Quillota 03-05-2026 18:45 15,8 49 0 0 190 0 1016
75 Quillota 03-05-2026 18:30 17,4 48 0 0 190 0 1015,7
74 Quillota 03-05-2026 18:15 19,1 47 0 0,4 190 0 1015,9
73 Quillota 03-05-2026 18:00 21,3 37 0 0,4 190 7 1015,7
72 Quillota 03-05-2026 17:45 22,9 37 0 0,4 221 12 1015,7
71 Quillota 03-05-2026 17:30 23,4 33 0 0,4 240 35 1015,7
70 Quillota 03-05-2026 17:15 23,9 34 0 1,8 207 72 1015,6
69 Quillota 03-05-2026 17:00 24,5 34 0 1,3 252 120 1015,6
68 Quillota 03-05-2026 16:45 25,6 33 0 3,1 241 185 1015,2
67 Quillota 03-05-2026 16:30 27 28 0 2,2 256 260 1014,9
66 Quillota 03-05-2026 16:15 27,1 26 0 0,9 222 283 1014,9
65 Quillota 03-05-2026 16:00 27,2 25 0 0,9 208 295 1014,8
64 Quillota 03-05-2026 15:45 27,2 28 0 2,7 249 334 1014,8
63 Quillota 03-05-2026 15:30 27,3 29 0 1,8 229 362 1015
62 Quillota 03-05-2026 15:15 27,2 32 0 1,3 263 387 1014,7
61 Quillota 03-05-2026 15:00 27 32 0 2,2 224 415 1014,9
60 Quillota 03-05-2026 14:45 26,6 34 0 0,9 230 443 1015
59 Quillota 03-05-2026 14:30 26,8 37 0 3,6 185 469 1015
58 Quillota 03-05-2026 14:15 27 37 0 4,5 242 494 1015,1
57 Quillota 03-05-2026 14:00 26,6 36 0 0,4 278 510 1015,1
56 Quillota 03-05-2026 13:45 26,1 37 0 0,4 278 527 1015,1
55 Quillota 03-05-2026 13:30 25,6 37 0 0,4 314 545 1015,3
54 Quillota 03-05-2026 13:15 25,1 39 0 0,4 264 552 1015,6
53 Quillota 03-05-2026 13:00 24,5 43 0 0,9 223 557 1016
52 Quillota 03-05-2026 12:45 24 44 0 1,8 271 559 1016,2
51 Quillota 03-05-2026 12:30 23,5 45 0 0,9 256 555 1016,1
50 Quillota 03-05-2026 12:15 23,1 48 0 1,8 284 550 1016,3
49 Quillota 03-05-2026 12:00 22,2 51 0 1,8 35 541 1016,3
48 Quillota 03-05-2026 11:45 21,1 54 0 1,8 215 527 1016,5
47 Quillota 03-05-2026 11:30 20,6 55 0 1,3 288 510 1016,6
46 Quillota 03-05-2026 11:15 20,3 56 0 3,6 280 492 1016,6
45 Quillota 03-05-2026 11:00 19,8 57 0 1,8 247 471 1016,4
44 Quillota 03-05-2026 10:45 18,9 61 0 1,3 299 448 1016,3
43 Quillota 03-05-2026 10:30 18,6 61 0 2,7 275 418 1016,3
42 Quillota 03-05-2026 10:15 17,9 64 0 2,2 248 388 1016,4
41 Quillota 03-05-2026 10:00 17,1 66 0 1,8 260 357 1016,5
40 Quillota 03-05-2026 09:45 15,9 67 0 0,4 352 323 1016,2
39 Quillota 03-05-2026 09:30 14,9 72 0 0,9 205 285 1016,4
38 Quillota 03-05-2026 09:15 14,2 75 0 1,3 265 246 1016,3
37 Quillota 03-05-2026 09:00 13 82 0 0,9 302 207 1015,6
36 Quillota 03-05-2026 08:45 11,6 88 0 1,3 190 165 1015,6
35 Quillota 03-05-2026 08:30 9,8 93 0 0,9 185 121 1015,8
34 Quillota 03-05-2026 08:15 7,2 92 0 0,9 153 79 1016
33 Quillota 03-05-2026 08:00 5,8 89 0 0,9 233 14 1015,7
32 Quillota 03-05-2026 07:45 6,2 89 0 0,9 202 11 1015,4
31 Quillota 03-05-2026 07:30 6,7 90 0 0 218 5 1015,7
30 Quillota 03-05-2026 07:15 6,4 89 0 0,9 218 0 1015,4
29 Quillota 03-05-2026 07:00 6,8 87 0 0,4 102 0 1015,1
28 Quillota 03-05-2026 06:45 7,4 86 0 0,4 100 0 1014,9
27 Quillota 03-05-2026 06:30 8,2 85 0 0,9 96 0 1015,1
26 Quillota 03-05-2026 06:15 9,1 87 0 0,9 88 0 1015
25 Quillota 03-05-2026 06:00 9,1 87 0 0,4 136 0 1015,2
24 Quillota 03-05-2026 05:45 9,1 88 0 1,3 175 0 1015
23 Quillota 03-05-2026 05:30 8,4 91 0 1,3 203 0 1014,6
22 Quillota 03-05-2026 05:15 6,6 90 0 1,3 175 0 1014,6
21 Quillota 03-05-2026 05:00 6,4 89 0 0 121 0 1014,3
20 Quillota 03-05-2026 04:45 7,2 91 0 0,4 123 0 1014,3
19 Quillota 03-05-2026 04:30 6,6 87 0 0 135 0 1014,4
18 Quillota 03-05-2026 04:15 7,2 89 0 0,4 136 0 1014,4
17 Quillota 03-05-2026 04:00 6,8 88 0 0,4 109 0 1015
16 Quillota 03-05-2026 03:45 7 87 0 0,9 100 0 1015,1
15 Quillota 03-05-2026 03:30 7,6 87 0 0 115 0 1015,5
14 Quillota 03-05-2026 03:15 7,8 86 0 0,9 79 0 1015,7
13 Quillota 03-05-2026 03:00 8,7 88 0 0,4 151 0 1016
12 Quillota 03-05-2026 02:45 8,4 90 0 0,9 145 0 1015,8
11 Quillota 03-05-2026 02:30 7,4 86 0 0 302 0 1015,7
10 Quillota 03-05-2026 02:15 7,9 88 0 0,4 300 0 1015,8
9 Quillota 03-05-2026 02:00 8,2 85 0 0 331 0 1016,1
8 Quillota 03-05-2026 01:45 8,8 85 0 0 185 0 1016
7 Quillota 03-05-2026 01:30 9,7 86 0 0,4 185 0 1015,7
6 Quillota 03-05-2026 01:15 8,6 86 0 1,3 185 0 1015,2
5 Quillota 03-05-2026 01:00 9,1 83 0 0,9 185 0 1014,7
4 Quillota 03-05-2026 00:45 9,3 86 0 1,3 163 0 1014,7
3 Quillota 03-05-2026 00:30 9,4 87 0 0 106 0 1015
2 Quillota 03-05-2026 00:15 9,1 88 0 0,9 161 0 1015,5
1 Quillota 03-05-2026 00:00 8,6 87 0 0 199 0 1015,6